Time;durP1;ratioP1;P1;durP2;ratioP2;P2;SDS_P1;SDS_P2;PMS_P1;PMS_P2;Temp;Humidity;BMP_temperature;BMP_pressure;BME280_temperature;BME280_humidity;BME280_pressure;Samples;Min_cycle;Max_cycle;Signal;HPM_P1;HPM_P2
2022/12/09 00:00:26;;;;;;;167.83;81.97;;;2.20;99.90;;;;;;10362068;28;20116;-83
2022/12/09 00:05:27;;;;;;;183.77;87.30;;;2.30;99.90;;;;;;10364261;28;20496;-83
2022/12/09 00:10:27;;;;;;;181.53;86.67;;;2.20;99.90;;;;;;10364028;28;20117;-83
2022/12/09 00:15:28;;;;;;;184.00;90.63;;;2.20;99.90;;;;;;10362831;28;20050;-83
2022/12/09 00:20:28;;;;;;;202.30;96.70;;;2.20;99.90;;;;;;10363463;28;20076;-83
2022/12/09 00:25:29;;;;;;;169.17;81.53;;;2.20;99.90;;;;;;10364413;28;20033;-83
2022/12/09 00:30:29;;;;;;;181.40;86.23;;;2.20;99.90;;;;;;10362091;28;20044;-83
2022/12/09 00:35:30;;;;;;;183.60;89.27;;;2.20;99.90;;;;;;10363240;28;20474;-83
2022/12/09 00:40:31;;;;;;;190.67;92.40;;;2.30;99.90;;;;;;10361921;28;20149;-83
2022/12/09 00:45:31;;;;;;;198.27;94.77;;;2.20;99.90;;;;;;10361820;28;20026;-82
2022/12/09 00:50:32;;;;;;;179.27;90.37;;;2.20;99.90;;;;;;10362837;28;20028;-83
2022/12/09 00:55:32;;;;;;;141.77;66.67;;;2.20;99.90;;;;;;10362281;28;20108;-83
2022/12/09 01:00:33;;;;;;;138.63;69.53;;;2.20;99.90;;;;;;10360149;28;20034;-83
2022/12/09 01:05:34;;;;;;;130.90;59.47;;;2.20;99.90;;;;;;10360214;28;20033;-83
2022/12/09 01:10:35;;;;;;;126.70;63.33;;;2.20;99.90;;;;;;10361536;28;20038;-83
2022/12/09 01:15:36;;;;;;;133.83;63.47;;;2.20;99.90;;;;;;10360373;28;20217;-83
2022/12/09 01:20:37;;;;;;;130.80;61.83;;;2.20;99.90;;;;;;10361583;28;20048;-83
2022/12/09 01:25:38;;;;;;;133.07;59.97;;;2.20;99.90;;;;;;10360567;28;20561;-83
2022/12/09 01:30:39;;;;;;;120.23;57.93;;;2.20;99.90;;;;;;10359889;28;20116;-83
2022/12/09 01:35:40;;;;;;;124.70;58.40;;;2.10;99.90;;;;;;10360498;28;20053;-82
2022/12/09 01:40:45;;;;;;;130.10;59.90;;;2.10;99.90;;;;;;10360756;28;20105;-83
2022/12/09 01:45:46;;;;;;;137.30;62.43;;;2.10;99.90;;;;;;10359980;28;20042;-83
2022/12/09 01:50:53;;;;;;;115.87;57.00;;;2.10;99.90;;;;;;10360608;28;20022;-83
2022/12/09 01:55:58;;;;;;;125.90;62.07;;;2.10;99.90;;;;;;10360079;28;20053;-82
2022/12/09 02:00:59;;;;;;;164.43;80.43;;;2.20;99.90;;;;;;10359270;28;20120;-83
2022/12/09 02:05:59;;;;;;;144.80;71.57;;;2.10;99.90;;;;;;10359438;28;20026;-83
2022/12/09 02:11:14;;;;;;;130.37;66.93;;;2.10;99.90;;;;;;10359993;28;20045;-83
2022/12/09 02:16:19;;;;;;;116.63;56.57;;;2.20;99.90;;;;;;10358795;28;20042;-83
2022/12/09 02:21:33;;;;;;;117.75;57.85;;;2.10;99.90;;;;;;10359068;28;20030;-83
2022/12/09 02:26:44;;;;;;;109.87;54.40;;;2.10;99.90;;;;;;10359423;28;20638;-83
2022/12/09 02:32:00;;;;;;;120.13;57.87;;;2.20;99.90;;;;;;10367174;28;20060;-83
2022/12/09 02:37:00;;;;;;;121.80;58.00;;;2.20;99.90;;;;;;10367457;28;20044;-83
2022/12/09 02:42:05;;;;;;;107.70;54.73;;;2.10;99.90;;;;;;10367843;28;20478;-84
2022/12/09 02:47:08;;;;;;;117.77;60.07;;;2.20;99.90;;;;;;10366528;28;20050;-83
2022/12/09 02:52:10;;;;;;;125.30;60.83;;;2.20;99.90;;;;;;10367581;28;20073;-83
2022/12/09 02:57:17;;;;;;;130.33;65.97;;;2.20;99.90;;;;;;10367013;28;20032;-83
2022/12/09 03:02:34;;;;;;;135.30;62.97;;;2.10;99.90;;;;;;10365374;28;20482;-84
2022/12/09 03:07:53;;;;;;;97.37;49.03;;;2.20;99.90;;;;;;10366630;28;20029;-84
2022/12/09 03:13:08;;;;;;;119.40;56.97;;;2.10;99.90;;;;;;10365470;28;20034;-83
2022/12/09 03:18:13;;;;;;;94.80;47.37;;;2.20;99.90;;;;;;10364583;28;20040;-83
2022/12/09 03:23:16;;;;;;;105.40;47.53;;;2.20;99.90;;;;;;10364717;28;20030;-84
2022/12/09 03:28:31;;;;;;;97.70;45.43;;;2.10;99.90;;;;;;10366085;28;20137;-82
2022/12/09 03:33:32;;;;;;;98.23;46.03;;;2.10;99.90;;;;;;10364860;28;20529;-83
2022/12/09 03:38:36;;;;;;;100.07;46.80;;;2.20;99.90;;;;;;10364725;28;20022;-83
2022/12/09 03:43:42;;;;;;;83.33;42.27;;;2.20;99.90;;;;;;10351798;28;20057;-83
2022/12/09 03:48:42;;;;;;;94.55;44.88;;;2.20;99.90;;;;;;10366302;28;20028;-83
2022/12/09 03:53:53;;;;;;;87.17;42.50;;;2.20;99.90;;;;;;10365598;28;20045;-83
2022/12/09 03:58:56;;;;;;;88.80;40.10;;;2.20;99.90;;;;;;10364854;28;20036;-83
2022/12/09 04:03:57;;;;;;;86.87;41.03;;;2.20;99.90;;;;;;10362892;28;20390;-84
2022/12/09 04:08:57;;;;;;;78.73;37.03;;;2.10;99.90;;;;;;10364458;28;20030;-84
2022/12/09 04:13:58;;;;;;;79.83;38.93;;;2.20;99.90;;;;;;10363724;28;20050;-83
2022/12/09 04:18:58;;;;;;;80.60;39.20;;;2.10;99.90;;;;;;10363538;28;20060;-82
2022/12/09 04:23:59;;;;;;;75.67;36.40;;;2.10;99.90;;;;;;10353053;28;20053;-83
2022/12/09 04:28:59;;;;;;;72.97;34.30;;;2.20;99.90;;;;;;10353422;28;20040;-83
2022/12/09 04:34:01;;;;;;;79.73;38.40;;;2.10;99.90;;;;;;10362504;28;20041;-83
2022/12/09 04:39:01;;;;;;;84.63;42.83;;;2.20;99.90;;;;;;10362096;28;20481;-83
2022/12/09 04:44:02;;;;;;;81.17;37.90;;;2.10;99.90;;;;;;10363202;28;20049;-83
2022/12/09 04:49:03;;;;;;;72.97;34.83;;;2.10;99.90;;;;;;10362405;28;20064;-83
2022/12/09 04:54:04;;;;;;;82.03;38.20;;;2.10;99.90;;;;;;10358624;28;20125;-83
2022/12/09 04:59:05;;;;;;;85.07;40.73;;;2.10;99.90;;;;;;10361699;28;20563;-84
2022/12/09 05:04:05;;;;;;;81.47;39.87;;;2.10;99.90;;;;;;10361655;28;20034;-86
2022/12/09 05:09:10;;;;;;;75.50;38.50;;;2.00;99.90;;;;;;10359690;28;20037;-84
2022/12/09 05:14:10;;;;;;;85.40;38.83;;;2.00;99.90;;;;;;10358701;28;20124;-83
2022/12/09 05:19:11;;;;;;;75.17;38.23;;;1.90;99.90;;;;;;10357011;28;20401;-84
2022/12/09 05:24:12;;;;;;;73.17;36.13;;;1.80;99.90;;;;;;10358848;28;20030;-84
2022/12/09 05:29:12;;;;;;;76.23;35.40;;;1.80;99.90;;;;;;10357802;28;20037;-84
2022/12/09 05:34:13;;;;;;;77.97;34.70;;;1.70;99.90;;;;;;10360758;28;20458;-84
2022/12/09 05:39:13;;;;;;;78.40;35.87;;;1.70;99.90;;;;;;10361808;28;20405;-84
2022/12/09 05:44:14;;;;;;;74.33;35.77;;;1.60;99.90;;;;;;10360844;28;20046;-84
2022/12/09 05:49:15;;;;;;;88.00;40.23;;;1.50;99.90;;;;;;10361552;28;20045;-84
2022/12/09 05:54:15;;;;;;;81.23;40.63;;;1.50;99.90;;;;;;10361052;28;20041;-84
2022/12/09 05:59:16;;;;;;;104.40;45.03;;;1.50;99.90;;;;;;10361135;28;20490;-84
2022/12/09 06:04:16;;;;;;;105.37;45.97;;;1.40;99.90;;;;;;10350798;28;20389;-84
2022/12/09 06:09:17;;;;;;;97.77;45.93;;;1.40;99.90;;;;;;10360747;28;20514;-84
2022/12/09 06:14:17;;;;;;;95.37;43.63;;;1.40;99.90;;;;;;10360425;28;20878;-83
2022/12/09 06:19:18;;;;;;;91.20;42.23;;;1.30;99.90;;;;;;10360392;28;20044;-85
2022/12/09 06:24:19;;;;;;;114.10;52.53;;;1.30;99.90;;;;;;10360165;28;20038;-83
2022/12/09 06:29:19;;;;;;;109.63;49.27;;;1.30;99.90;;;;;;10360181;28;20030;-84
2022/12/09 06:34:20;;;;;;;106.97;51.70;;;1.30;99.90;;;;;;10360387;28;20069;-84
2022/12/09 06:39:20;;;;;;;125.97;61.50;;;1.20;99.90;;;;;;10359748;28;20038;-84
2022/12/09 06:44:21;;;;;;;197.70;89.93;;;1.10;99.90;;;;;;10359902;28;20073;-84
2022/12/09 06:49:21;;;;;;;138.93;70.13;;;1.10;99.90;;;;;;10360005;28;20034;-84
2022/12/09 06:54:22;;;;;;;151.30;69.40;;;1.10;99.90;;;;;;10360246;28;20403;-84
2022/12/09 06:59:23;;;;;;;141.10;63.47;;;1.10;99.90;;;;;;10360134;28;20037;-83
2022/12/09 07:04:24;;;;;;;123.97;57.27;;;1.10;99.90;;;;;;10359864;28;20033;-83
2022/12/09 07:09:26;;;;;;;137.37;60.77;;;1.00;99.90;;;;;;10360118;28;20036;-84
2022/12/09 07:14:26;;;;;;;134.17;56.30;;;0.90;99.90;;;;;;10362081;28;20034;-83
2022/12/09 07:19:29;;;;;;;122.50;57.53;;;0.80;99.90;;;;;;10367132;28;20029;-84
2022/12/09 07:24:29;;;;;;;114.80;56.63;;;0.70;99.90;;;;;;10366751;28;20536;-83
2022/12/09 07:29:31;;;;;;;137.17;57.37;;;0.70;99.90;;;;;;10366261;28;20018;-83
2022/12/09 07:34:32;;;;;;;174.73;75.07;;;0.70;99.90;;;;;;10366537;28;20037;-84
2022/12/09 07:39:32;;;;;;;211.23;96.17;;;0.70;99.90;;;;;;10365986;28;20426;-83
2022/12/09 07:44:33;;;;;;;297.70;112.63;;;0.70;99.90;;;;;;10366332;28;20076;-83
2022/12/09 07:49:33;;;;;;;328.77;119.30;;;0.70;99.90;;;;;;10365945;28;20040;-83
2022/12/09 07:54:34;;;;;;;221.70;89.90;;;0.70;99.90;;;;;;10365810;28;20038;-83
2022/12/09 07:59:34;;;;;;;347.60;135.53;;;0.70;99.90;;;;;;10366033;28;20026;-84
2022/12/09 08:04:35;;;;;;;350.30;147.13;;;0.70;99.90;;;;;;10339539;28;20033;-84
2022/12/09 08:09:35;;;;;;;335.73;139.27;;;0.70;99.90;;;;;;10345595;28;20127;-84
2022/12/09 08:14:36;;;;;;;250.03;118.77;;;0.80;99.90;;;;;;10349931;28;20052;-84
2022/12/09 08:19:36;;;;;;;315.33;134.90;;;0.80;99.90;;;;;;10339831;28;20018;-82
2022/12/09 08:24:37;;;;;;;353.97;159.60;;;0.90;99.90;;;;;;10363354;28;20057;-83
2022/12/09 08:29:38;;;;;;;327.80;149.10;;;1.00;99.90;;;;;;10334292;28;20858;-83
2022/12/09 08:34:38;;;;;;;351.67;157.07;;;1.20;99.90;;;;;;10335600;28;20088;-84
2022/12/09 08:39:39;;;;;;;290.40;138.20;;;1.40;99.90;;;;;;10332344;28;20530;-82
2022/12/09 08:44:39;;;;;;;311.37;145.37;;;1.60;99.90;;;;;;10357144;28;20088;-83
2022/12/09 08:49:40;;;;;;;332.97;167.67;;;1.70;99.90;;;;;;10362706;28;20040;-84
2022/12/09 08:54:40;;;;;;;341.67;170.30;;;1.90;99.90;;;;;;10362336;28;20401;-83
2022/12/09 08:59:41;;;;;;;209.10;105.50;;;2.00;99.90;;;;;;10354083;28;20034;-83
2022/12/09 09:04:41;;;;;;;198.80;101.43;;;2.10;99.90;;;;;;10358633;28;20025;-83
2022/12/09 09:09:51;;;;;;;224.40;121.17;;;2.30;99.90;;;;;;10337670;28;20030;-83
2022/12/09 09:15:14;;;;;;;231.43;118.23;;;2.30;99.90;;;;;;10323781;28;20042;-85
2022/12/09 09:20:20;;;;;;;225.67;118.73;;;2.40;99.90;;;;;;10328069;28;20027;-84
2022/12/09 09:25:21;;;;;;;289.17;140.73;;;2.50;99.90;;;;;;10344448;28;20057;-84
2022/12/09 09:30:21;;;;;;;269.97;131.57;;;2.60;99.90;;;;;;10358811;28;20541;-83
2022/12/09 09:35:22;;;;;;;256.83;130.90;;;2.90;99.90;;;;;;10361127;28;20418;-84
2022/12/09 09:40:22;;;;;;;204.63;103.13;;;3.00;99.90;;;;;;10360254;28;20465;-83
2022/12/09 09:45:23;;;;;;;200.77;103.87;;;3.10;99.90;;;;;;10358726;28;20040;-84
2022/12/09 09:50:42;;;;;;;176.97;94.43;;;3.20;99.90;;;;;;10360388;28;20030;-83
2022/12/09 09:55:48;;;;;;;213.47;112.73;;;3.10;99.90;;;;;;10361565;28;20038;-84
2022/12/09 10:01:06;;;;;;;178.52;94.72;;;3.10;99.90;;;;;;10361062;28;20057;-83
2022/12/09 10:06:20;;;;;;;250.87;136.87;;;3.20;99.90;;;;;;10361312;28;20498;-84
2022/12/09 10:11:43;;;;;;;172.93;99.37;;;3.30;99.90;;;;;;10361079;28;20057;-83
2022/12/09 10:17:11;;;;;;;151.20;78.63;;;3.50;99.90;;;;;;10361502;28;20079;-83
2022/12/09 10:22:18;;;;;;;150.27;80.13;;;3.70;99.90;;;;;;10360034;28;20560;-83
2022/12/09 10:27:37;;;;;;;149.87;77.50;;;3.80;99.90;;;;;;10361438;28;20401;-84
2022/12/09 10:32:38;;;;;;;132.77;67.63;;;3.80;99.90;;;;;;10338605;28;20076;-84
2022/12/09 10:37:39;;;;;;;128.83;71.93;;;3.90;99.90;;;;;;10360461;28;20097;-85
2022/12/09 10:48:05;;;;;;;127.20;63.80;;;4.00;99.90;;;;;;10360494;28;20670;-84
2022/12/09 10:53:12;;;;;;;141.47;66.97;;;3.90;99.90;;;;;;10367685;28;20038;-84
2022/12/09 10:58:23;;;;;;;127.07;76.33;;;4.00;99.90;;;;;;10368198;28;20088;-83
2022/12/09 11:03:52;;;;;;;85.17;46.13;;;4.00;99.90;;;;;;10367391;28;20070;-84
2022/12/09 11:08:56;;;;;;;90.63;50.17;;;4.00;99.90;;;;;;10350072;28;20088;-84
2022/12/09 11:13:57;;;;;;;89.90;46.00;;;4.00;99.90;;;;;;10365295;28;20037;-86
2022/12/09 11:18:57;;;;;;;95.67;51.60;;;4.00;99.90;;;;;;10366636;28;20038;-84
2022/12/09 11:23:58;;;;;;;71.70;40.17;;;4.10;99.90;;;;;;10367156;28;20121;-83
2022/12/09 11:29:05;;;;;;;83.50;46.07;;;4.10;99.90;;;;;;10366875;28;20689;-85
2022/12/09 11:34:24;;;;;;;67.97;35.90;;;4.20;99.90;;;;;;10366573;28;20053;-83
2022/12/09 11:39:25;;;;;;;64.83;35.60;;;4.20;99.90;;;;;;10366266;28;20034;-83
2022/12/09 11:44:29;;;;;;;61.23;33.17;;;4.30;99.90;;;;;;10364115;28;20053;-84
2022/12/09 11:49:34;;;;;;;54.57;30.30;;;4.20;99.90;;;;;;10365853;28;20028;-84
2022/12/09 11:54:56;;;;;;;90.13;47.83;;;4.20;99.90;;;;;;10365444;28;20512;-83
2022/12/09 12:00:02;;;;;;;95.67;48.83;;;4.10;99.90;;;;;;10363873;28;20036;-84
2022/12/09 12:05:11;;;;;;;69.17;36.10;;;4.10;99.90;;;;;;10363867;28;20026;-85
2022/12/09 12:10:23;;;;;;;58.80;31.77;;;4.10;99.90;;;;;;10363129;28;20064;-83
2022/12/09 12:15:58;;;;;;;66.27;34.47;;;4.10;99.90;;;;;;10351686;28;20034;-83
2022/12/09 12:21:19;;;;;;;78.37;41.43;;;4.10;99.90;;;;;;10355982;28;20034;-84
2022/12/09 12:26:37;;;;;;;83.07;44.13;;;4.10;99.90;;;;;;10364641;28;20265;-84
2022/12/09 12:32:11;;;;;;;123.37;81.27;;;4.20;99.90;;;;;;10363721;28;20038;-83
2022/12/09 12:37:30;;;;;;;88.77;53.70;;;4.10;99.90;;;;;;10364426;28;20037;-83
2022/12/09 12:46:15;;;;;;;70.90;40.17;;;3.90;99.90;;;;;;10355634;28;20061;-85
2022/12/09 12:48:14;;;;;;;66.30;32.90;;;3.80;99.90;;;;;;10350423;28;20193;-84
2022/12/09 12:53:35;;;;;;;56.13;32.00;;;3.70;99.90;;;;;;10361533;28;20603;-84
2022/12/09 12:58:54;;;;;;;76.93;37.30;;;3.60;99.90;;;;;;10362869;28;20502;-83
2022/12/09 13:04:21;;;;;;;103.07;61.77;;;3.70;99.90;;;;;;10357902;28;20542;-84
2022/12/09 13:09:55;;;;;;;75.83;39.97;;;3.70;99.90;;;;;;10363390;28;20072;-83
2022/12/09 13:14:56;;;;;;;94.53;59.63;;;3.70;99.90;;;;;;10361182;28;20406;-84
2022/12/09 13:20:00;;;;;;;91.60;51.53;;;3.60;99.90;;;;;;10361347;28;20037;-84
2022/12/09 13:25:24;;;;;;;202.73;134.73;;;3.60;99.90;;;;;;10349815;28;20021;-84
2022/12/09 13:30:42;;;;;;;90.40;49.57;;;3.50;99.90;;;;;;10348456;28;20551;-85
2022/12/09 13:35:53;;;;;;;163.83;93.40;;;3.50;99.90;;;;;;10353626;28;20061;-85
2022/12/09 13:40:54;;;;;;;115.07;62.50;;;3.50;99.90;;;;;;10360092;28;20842;-83
2022/12/09 13:45:59;;;;;;;137.37;80.70;;;3.50;99.90;;;;;;10352724;28;20033;-84
2022/12/09 13:51:02;;;;;;;91.57;44.50;;;3.50;99.90;;;;;;10360119;28;20381;-83
2022/12/09 13:56:17;;;;;;;102.97;57.83;;;3.50;99.90;;;;;;10358900;28;20485;-84
2022/12/09 14:01:20;;;;;;;88.77;44.30;;;3.40;99.90;;;;;;10346623;28;20478;-81
2022/12/09 14:06:33;;;;;;;92.93;47.47;;;3.40;99.90;;;;;;10347703;28;20049;-81
2022/12/09 14:11:36;;;;;;;96.10;52.07;;;3.40;99.90;;;;;;10357923;28;20331;-81
2022/12/09 14:16:37;;;;;;;99.77;52.03;;;3.30;99.90;;;;;;10357928;28;20092;-82
2022/12/09 14:21:37;;;;;;;82.07;43.27;;;3.30;99.90;;;;;;10357578;28;20096;-82
2022/12/09 14:26:45;;;;;;;88.83;45.90;;;3.20;99.90;;;;;;10364815;28;20436;-83
2022/12/09 14:31:54;;;;;;;91.20;45.57;;;3.20;99.90;;;;;;10362995;28;20038;-83
2022/12/09 14:37:24;;;;;;;91.90;50.63;;;3.20;99.90;;;;;;10366323;28;20066;-81
2022/12/09 14:42:49;;;;;;;93.63;49.23;;;3.10;99.90;;;;;;10364926;28;20058;-81
2022/12/09 14:47:50;;;;;;;81.90;44.60;;;3.10;99.90;;;;;;10365303;28;20118;-81
2022/12/09 14:52:56;;;;;;;103.70;49.23;;;3.10;99.90;;;;;;10364499;28;20397;-82
2022/12/09 14:57:58;;;;;;;95.33;49.53;;;3.00;99.90;;;;;;10351547;28;20026;-82
2022/12/09 15:03:00;;;;;;;99.00;49.17;;;2.90;99.90;;;;;;10361734;28;20509;-82
2022/12/09 15:08:01;;;;;;;107.17;51.20;;;2.80;99.90;;;;;;10364719;28;20036;-82
2022/12/09 15:13:02;;;;;;;133.40;64.93;;;2.70;99.90;;;;;;10364404;28;20389;-83
2022/12/09 15:18:20;;;;;;;767.20;470.17;;;2.60;99.90;;;;;;10363803;28;20066;-82
2022/12/09 15:23:33;;;;;;;470.63;274.87;;;2.50;99.90;;;;;;10365075;28;20092;-82
2022/12/09 15:28:36;;;;;;;781.67;493.17;;;2.40;99.90;;;;;;10352154;28;20759;-83
2022/12/09 15:33:42;;;;;;;184.03;91.43;;;2.20;99.90;;;;;;10348065;28;20045;-82
2022/12/09 15:38:48;;;;;;;388.30;192.97;;;2.00;99.90;;;;;;10362694;28;20094;-82
2022/12/09 15:43:50;;;;;;;430.90;173.27;;;1.90;99.90;;;;;;10365375;28;20080;-83
2022/12/09 15:48:55;;;;;;;273.97;108.87;;;1.80;99.90;;;;;;10336739;28;20113;-82
2022/12/09 15:54:06;;;;;;;462.87;170.07;;;1.80;99.90;;;;;;10327149;28;20066;-82
2022/12/09 15:59:21;;;;;;;295.40;100.60;;;1.70;99.90;;;;;;10357845;28;20099;-83
2022/12/09 16:04:27;;;;;;;642.63;307.03;;;1.70;99.90;;;;;;10355176;28;20042;-82
2022/12/09 16:09:27;;;;;;;577.50;258.17;;;1.70;99.90;;;;;;10362056;28;20132;-82
2022/12/09 16:14:41;;;;;;;486.07;188.80;;;1.60;99.90;;;;;;10352075;28;20052;-83
2022/12/09 16:19:42;;;;;;;220.13;87.00;;;1.60;99.90;;;;;;10363064;28;20030;-82
2022/12/09 16:25:06;;;;;;;562.83;187.33;;;1.60;99.90;;;;;;10363012;28;20026;-83
2022/12/09 16:30:14;;;;;;;195.03;72.10;;;1.60;99.90;;;;;;10356960;28;20087;-82
2022/12/09 16:35:24;;;;;;;250.13;89.63;;;1.50;99.90;;;;;;10361243;28;20072;-83
2022/12/09 16:40:25;;;;;;;789.23;322.73;;;1.50;99.90;;;;;;10350059;28;20374;-83
2022/12/09 16:45:36;;;;;;;271.00;105.40;;;1.50;99.90;;;;;;10360104;28;20114;-84
2022/12/09 16:51:16;;;;;;;554.33;257.37;;;1.50;99.90;;;;;;10361341;28;20448;-84
2022/12/09 16:56:26;;;;;;;177.87;70.77;;;1.50;99.90;;;;;;10349792;23;20058;-80
2022/12/09 17:01:38;;;;;;;426.97;197.97;;;1.40;99.90;;;;;;10299612;28;20066;-83
2022/12/09 17:06:39;;;;;;;561.00;254.33;;;1.40;99.90;;;;;;10316656;28;20045;-84
2022/12/09 17:11:40;;;;;;;431.07;193.10;;;1.40;99.90;;;;;;10310524;28;20050;-84
2022/12/09 17:16:41;;;;;;;528.10;250.43;;;1.40;99.90;;;;;;10320256;28;20781;-83
2022/12/09 17:21:41;;;;;;;391.33;159.40;;;1.30;99.90;;;;;;10315673;28;20631;-83
2022/12/09 17:26:42;;;;;;;275.63;105.10;;;1.40;99.90;;;;;;10335447;22;20057;-82
2022/12/09 17:31:43;;;;;;;218.00;73.87;;;1.30;99.90;;;;;;10309066;28;20026;-85
2022/12/09 17:36:44;;;;;;;348.03;133.00;;;1.40;99.90;;;;;;10297778;28;20112;-84
2022/12/09 17:41:47;;;;;;;305.40;108.80;;;1.40;99.90;;;;;;10316595;28;20565;-85
2022/12/09 17:46:49;;;;;;;316.30;115.53;;;1.40;99.90;;;;;;10311400;28;20469;-82
2022/12/09 17:51:50;;;;;;;276.33;92.87;;;1.30;99.90;;;;;;10318130;28;20065;-83
2022/12/09 17:56:50;;;;;;;318.03;123.40;;;1.30;99.90;;;;;;10315805;28;20104;-84
2022/12/09 18:01:51;;;;;;;264.20;97.17;;;1.20;99.90;;;;;;10309464;28;20027;-85
2022/12/09 18:06:51;;;;;;;272.43;99.70;;;1.20;99.90;;;;;;10293576;28;20109;-84
2022/12/09 18:11:52;;;;;;;262.03;87.63;;;1.20;99.90;;;;;;10319224;28;20096;-82
2022/12/09 18:16:52;;;;;;;411.43;167.00;;;1.30;99.90;;;;;;10305698;28;20474;-85
2022/12/09 18:21:54;;;;;;;198.43;74.13;;;1.30;99.90;;;;;;10310801;28;20030;-83
2022/12/09 18:26:56;;;;;;;313.20;107.37;;;1.30;99.90;;;;;;10312905;28;20553;-84
2022/12/09 18:32:00;;;;;;;278.17;88.23;;;1.30;99.90;;;;;;10320019;28;20049;-84
2022/12/09 18:37:02;;;;;;;250.60;81.73;;;1.30;99.90;;;;;;10317823;28;20058;-83
2022/12/09 18:42:03;;;;;;;278.83;87.30;;;1.20;99.90;;;;;;10305530;28;20438;-85
2022/12/09 18:47:03;;;;;;;261.60;79.47;;;1.20;99.90;;;;;;10303146;28;20494;-83
2022/12/09 18:52:04;;;;;;;223.47;74.87;;;1.20;99.90;;;;;;10318668;28;20043;-83
2022/12/09 18:57:05;;;;;;;247.30;79.37;;;1.10;99.90;;;;;;10320616;28;20045;-84
2022/12/09 19:02:07;;;;;;;202.33;64.53;;;1.10;99.90;;;;;;10318810;28;20030;-84
2022/12/09 19:07:11;;;;;;;231.03;71.60;;;1.10;99.90;;;;;;10303794;28;20039;-84
2022/12/09 19:12:13;;;;;;;166.03;57.90;;;1.10;99.90;;;;;;10295850;28;20046;-84
2022/12/09 19:17:13;;;;;;;189.00;63.10;;;1.10;99.90;;;;;;10311665;28;20038;-84
2022/12/09 19:22:14;;;;;;;201.60;68.57;;;1.10;99.90;;;;;;10324496;28;20046;-84
2022/12/09 19:27:15;;;;;;;173.43;57.33;;;1.10;99.90;;;;;;10326333;28;20513;-84
2022/12/09 19:32:15;;;;;;;169.83;59.30;;;1.10;99.90;;;;;;10302646;28;20505;-86
2022/12/09 19:37:16;;;;;;;160.70;53.80;;;1.10;99.90;;;;;;10323002;28;20034;-85
2022/12/09 19:42:18;;;;;;;188.57;65.43;;;1.10;99.90;;;;;;10325135;28;20031;-85
2022/12/09 19:47:18;;;;;;;179.13;57.17;;;1.10;99.90;;;;;;10310666;28;20030;-84
2022/12/09 19:52:19;;;;;;;165.77;54.50;;;1.10;99.90;;;;;;10312728;28;20505;-85
2022/12/09 19:57:21;;;;;;;166.23;57.30;;;1.10;99.90;;;;;;10324250;28;20030;-84
2022/12/09 20:02:21;;;;;;;142.23;48.83;;;1.10;99.90;;;;;;10323965;28;20034;-84
2022/12/09 20:07:22;;;;;;;134.70;45.70;;;1.20;99.90;;;;;;10307433;28;20034;-86
2022/12/09 20:12:22;;;;;;;127.60;43.83;;;1.20;99.90;;;;;;10322796;28;20038;-84
2022/12/09 20:17:23;;;;;;;136.30;46.13;;;1.20;99.90;;;;;;10321588;28;20026;-87
2022/12/09 20:22:23;;;;;;;133.53;44.93;;;1.20;99.90;;;;;;10320787;28;20088;-86
2022/12/09 20:27:24;;;;;;;142.27;47.53;;;1.20;99.90;;;;;;10321785;28;20544;-86
2022/12/09 20:32:28;;;;;;;144.50;51.57;;;1.20;99.90;;;;;;10311474;28;20170;-83
2022/12/09 20:37:30;;;;;;;163.33;54.97;;;1.20;99.90;;;;;;10316668;28;20046;-85
2022/12/09 20:42:31;;;;;;;122.50;44.90;;;1.20;99.90;;;;;;10317652;28;20118;-86
2022/12/09 20:47:32;;;;;;;119.50;46.60;;;1.20;99.90;;;;;;10319749;28;20133;-85
2022/12/09 20:52:32;;;;;;;121.27;45.47;;;1.20;99.90;;;;;;10321501;28;20049;-87
2022/12/09 20:57:33;;;;;;;121.07;42.70;;;1.20;99.90;;;;;;10320743;28;20030;-88
2022/12/09 21:02:38;;;;;;;112.10;41.37;;;1.20;99.90;;;;;;10316819;28;20058;-87
2022/12/09 21:07:39;;;;;;;102.13;39.50;;;1.20;99.90;;;;;;10307073;28;20572;-87
2022/12/09 21:12:39;;;;;;;98.60;39.20;;;1.20;99.90;;;;;;10314130;28;20038;-88
2022/12/09 21:17:40;;;;;;;97.80;35.67;;;1.10;99.90;;;;;;10314168;28;20030;-87
2022/12/09 21:22:40;;;;;;;80.60;33.97;;;1.10;99.90;;;;;;10290000;28;20129;-87
2022/12/09 21:27:41;;;;;;;94.80;35.20;;;1.10;99.90;;;;;;10318467;28;20778;-87
2022/12/09 21:32:42;;;;;;;91.87;35.30;;;1.10;99.90;;;;;;10319483;28;20042;-88
2022/12/09 21:37:43;;;;;;;88.23;36.40;;;1.20;99.90;;;;;;10316522;28;20030;-87
2022/12/09 21:42:43;;;;;;;95.67;37.17;;;1.10;99.90;;;;;;10314487;28;20758;-86
2022/12/09 21:47:44;;;;;;;84.67;32.30;;;1.10;99.90;;;;;;10319249;28;20026;-88
2022/12/09 21:52:44;;;;;;;92.53;35.20;;;1.10;99.90;;;;;;10331679;28;20115;-87
2022/12/09 21:57:45;;;;;;;83.73;32.30;;;1.10;99.90;;;;;;10308463;28;20025;-88
2022/12/09 22:02:50;;;;;;;76.00;29.43;;;1.20;99.90;;;;;;10309219;28;20038;-86
2022/12/09 22:07:51;;;;;;;75.22;29.05;;;1.10;99.90;;;;;;10317315;28;20030;-83
2022/12/09 22:12:53;;;;;;;74.03;29.53;;;1.20;99.90;;;;;;10318316;28;20498;-87
2022/12/09 22:17:53;;;;;;;61.33;26.37;;;1.20;99.90;;;;;;10316345;28;20030;-87
2022/12/09 22:22:54;;;;;;;77.87;28.30;;;1.20;99.90;;;;;;10279838;28;1080286;-87
2022/12/09 22:27:54;;;;;;;70.03;25.30;;;1.20;99.90;;;;;;10316261;28;20030;-88
2022/12/09 22:32:55;;;;;;;74.90;28.57;;;1.20;99.90;;;;;;10318699;28;20437;-87
2022/12/09 22:37:56;;;;;;;78.20;27.30;;;1.20;99.90;;;;;;10295006;28;20101;-87
2022/12/09 22:42:56;;;;;;;69.23;28.70;;;1.20;99.90;;;;;;10300780;28;20035;-86
2022/12/09 22:47:57;;;;;;;67.10;25.43;;;1.20;99.90;;;;;;10294320;28;20475;-87
2022/12/09 22:52:57;;;;;;;59.17;24.03;;;1.20;99.90;;;;;;10289326;28;20091;-86
2022/12/09 22:57:58;;;;;;;60.87;24.77;;;1.10;99.90;;;;;;10292496;28;20039;-86
2022/12/09 23:02:58;;;;;;;56.40;23.13;;;1.10;99.90;;;;;;10295889;28;20031;-86
2022/12/09 23:07:59;;;;;;;58.50;24.47;;;1.10;99.90;;;;;;10285945;28;20482;-86
2022/12/09 23:12:59;;;;;;;60.70;25.57;;;1.10;99.90;;;;;;10286618;28;20622;-85
2022/12/09 23:18:00;;;;;;;65.17;27.00;;;1.10;99.90;;;;;;10298424;28;20122;-86
2022/12/09 23:23:01;;;;;;;67.30;25.63;;;1.10;99.90;;;;;;10325185;28;20387;-85
2022/12/09 23:28:03;;;;;;;73.53;28.87;;;1.10;99.90;;;;;;10325730;28;20050;-85
2022/12/09 23:33:03;;;;;;;69.30;27.27;;;1.10;99.90;;;;;;10323269;28;20038;-86
2022/12/09 23:38:04;;;;;;;66.07;25.77;;;1.10;99.90;;;;;;10324101;28;20046;-87
2022/12/09 23:43:04;;;;;;;73.03;26.60;;;1.10;99.90;;;;;;10323649;28;20033;-86
2022/12/09 23:48:05;;;;;;;56.57;23.63;;;1.10;99.90;;;;;;10325205;28;20069;-87
2022/12/09 23:53:05;;;;;;;62.43;24.63;;;1.10;99.90;;;;;;10325519;28;20523;-84
2022/12/09 23:58:06;;;;;;;62.53;25.03;;;1.10;99.90;;;;;;10323247;28;20036;-89
